x

Georgian Bay (45137) Wave Buoy

5:00pm - Wed 26th Nov 2014 All times are CST. -6 hours from GMT.

  • Sig Wave height 2.0ft
  • Peak Period 3s
  • Wind
    22mph, 27mph gusts
  • Sea Temp 41°f
  • Air Temp 29°f
  • Sea Pressure 1021.8mb
  • Georgian Bay
  • Georgian Bay

More Historic Weather Station data

Upgrade to MSW Pro to gain access to the past 30 days of data for over 8000 Wavebouys and Weather Stations around the globe.

Join Pro

Comparision Forecast

View Surf forecast
   
Wed 11/26 5:00pm 2ft 3s 22 27 mph 1021.8mb 41f 29f
4:00pm 1.3ft 3s 18 25 mph 1022.5mb 41f 30f
3:00pm 1.6ft 3s 16 18 mph 1022.9mb 41f 30f
2:00pm 1.6ft 3s 13 18 mph 1022.9mb 41f 30f
1:00pm 1.6ft 3s 13 18 mph 1022.4mb 41f 30f
12:00pm 1.6ft 4s 16 18 mph 1022.7mb 41f 29f
11:00am 1.6ft 4s 13 16 mph 1023.7mb 41f 29f
10:00am 2ft 3s 13 18 mph 1024.1mb 41f 29f
9:00am 1.6ft 3s 16 18 mph 1024.7mb 41f 29f
8:00am 1.6ft 3s 16 18 mph 1024.9mb 41f 28f
7:00am 1.6ft 3s 13 18 mph 1024.1mb 41f 28f
6:00am 1.3ft 3s 13 16 mph 1024.1mb 41f 28f
5:00am 1.3ft 2s 13 18 mph 1023.8mb 41f 28f
4:00am 1ft 5s 13 16 mph 1023.4mb 41f 29f
3:00am 1ft 6s 9 11 mph 1023.8mb 41f 29f
2:00am 1.3ft 3s 7 9 mph 1023.9mb 41f 29f
1:00am 1.3ft 6s 7 9 mph 1023.6mb 41f 29f
12:00am 2ft 4s 9 11 mph 1022.6mb 41f 30f
Tue 11/25 11:00pm 2.5ft 4s 11 16 mph 1022.2mb 41f 31f
10:00pm 3ft 4s 13 18 mph 1021.4mb 41f 31f
9:00pm 3.5ft 4s 16 18 mph 1020.2mb 41f 31f
8:00pm 4ft 5s 16 22 mph 1019.6mb 41f 30f
7:00pm 4.5ft 5s 18 25 mph 1018.2mb 41f 31f
6:00pm  -   -  20
mph
- - -
5:00pm 5ft 5s 20 25 mph 1016.1mb 42f 31f
4:00pm 5ft 6s 22 27 mph 1014.8mb 42f 31f
3:00pm 5ft 6s 27 34 mph 1012.9mb 42f 31f
2:00pm 5ft 6s 25 29 mph 1011.2mb 42f 32f
1:00pm 5ft 6s 22 29 mph 1009.3mb 42f 32f
11:00am 7ft 6s 27 36 mph 1007.1mb 42f 33f
10:00am 7.5ft 6s 22 29 mph 1005.9mb 42f 34f
9:00am 8ft 6s 27 34 mph 1004.6mb 42f 36f
8:00am 9ft 6s 29 36 mph 1003.9mb 42f 34f
7:00am 9ft 7s 31 38 mph 1002.5mb 42f 38f
6:00am 8ft 7s 31 40 mph 1001.9mb 42f 37f
5:00am 8.5ft 7s 31 36 mph 1000.9mb 42f 38f
4:00am 10ft 6s 31 38 mph 1000.2mb 42f 39f
3:00am 10ft 7s 36 43 mph 999.1mb 42f 39f
2:00am 11ft 7s 34 43 mph 998.8mb 42f 38f
1:00am 12ft 7s 36 45 mph 997.7mb 42f 38f
12:00am 12.5ft 7s 40 49 mph 996.1mb 42f 38f
Mon 11/24 11:00pm 13ft 8s 38 49 mph 995.2mb 42f 39f
10:00pm 14.5ft 8s 40 51 mph 993.8mb 42f 38f
9:00pm 14ft 8s 40 51 mph 992.5mb 42f 39f
8:00pm 12.5ft 8s 40 56 mph 991.3mb 42f 39f
7:00pm 7ft 5s 40 49 mph 990mb 42f 40f
6:00pm 3.5ft 4s 36 45 mph 988.6mb 42f 43f
5:00pm 3ft 4s 11 13 mph 986.6mb 42f 44f
4:00pm 3ft 5s 16 18 mph 984.7mb 42f 46f
3:00pm 3.5ft 5s 16 18 mph 984mb 42f 46f
2:00pm 4ft 5s 16 18 mph 983mb 42f 46f
1:00pm 4.5ft 5s 16 18 mph 982.5mb 42f 47f
12:00pm 5ft 5s 18 20 mph 982.2mb 42f 47f
11:00am 5.5ft 5s 18 20 mph 982.1mb 42f 47f
10:00am 6ft 6s 20 25 mph 982.4mb 42f 47f
9:00am 6ft 6s 22 27 mph 981.9mb 42f 47f
8:00am 7ft 7s 25 29 mph 980.8mb 42f 48f
7:00am 8ft 7s 27 31 mph 980.2mb 42f 47f
6:00am 8ft 6s 29 34 mph 980.5mb 42f 46f
5:00am 7.5ft 6s 27 31 mph 982.2mb 42f 45f
4:00am 8ft 7s 27 34 mph 984.4mb 42f 44f
3:00am 7ft 6s 29 38 mph 986mb 42f 44f
2:00am 6.5ft 6s 31 38 mph 988.4mb 42f 43f
1:00am 5.5ft 6s 29 34 mph 991.2mb 42f 45f
12:00am 5ft 6s 25 34 mph 994.1mb 42f 45f
Sun 11/23 11:00pm 4.5ft 5s 25 29 mph 997.1mb 42f 44f
10:00pm 4.5ft 5s 22 27 mph 999.9mb 42f 44f
9:00pm 3.5ft 5s 20 25 mph 1002mb 42f 44f
8:00pm 3ft 4s 20 22 mph 1003.5mb 42f 44f
7:00pm 2.5ft 4s 18 22 mph 1004.9mb 42f 45f
6:00pm 3.5ft 4s 18 22 mph 1005.6mb 42f 45f
5:00pm 3ft 4s 18 22 mph 1006.1mb 42f 45f
4:00pm 3.5ft 4s 16 18 mph 1006.7mb 42f 44f
3:00pm 2.5ft 4s 13 16 mph 1007.8mb 42f 44f
2:00pm 2.5ft 4s 13 16 mph 1008.4mb 42f 44f
1:00pm 2.5ft 4s 18 20 mph 1008.7mb 42f 44f
12:00pm 2ft 4s 13 16 mph 1009.6mb 42f 44f
11:00am 1.6ft 3s 13 16 mph 1011.2mb 42f 44f
10:00am 1ft 2s 13 18 mph 1011.6mb 42f 44f
9:00am 1ft 4s 11 13 mph 1012mb 42f 44f
8:00am 1ft 4s 9 11 mph 1012.4mb 42f 44f
7:00am 1ft 3s 9 11 mph 1012.6mb 42f 43f
6:00am 1.3ft 3s 7 9 mph 1012.2mb 42f 43f
5:00am 1.3ft 3s 7 9 mph 1012.4mb 42f 43f
4:00am 1.6ft 4s 7 9 mph 1012.3mb 42f 43f
3:00am 2ft 4s 11 13 mph 1012.1mb 42f 43f
2:00am 2.5ft 4s 9 11 mph 1011.9mb 42f 42f
1:00am 3ft 5s 13 16 mph 1011.7mb 42f 42f